createdAt,value
2023-10-12T00:00:17.247Z,18.50
2023-10-12T00:05:28.216Z,18.44
2023-10-12T00:10:27.328Z,18.35
2023-10-12T00:15:27.310Z,18.20
2023-10-12T00:20:27.202Z,18.11
2023-10-12T00:25:27.132Z,18.01
2023-10-12T00:30:27.086Z,17.89
2023-10-12T00:35:26.973Z,17.79
2023-10-12T00:40:27.141Z,17.67
2023-10-12T00:45:26.863Z,17.63
2023-10-12T00:50:26.782Z,17.63
2023-10-12T00:55:26.694Z,17.64
2023-10-12T01:00:26.662Z,17.65
2023-10-12T01:05:26.598Z,17.63
2023-10-12T01:10:26.524Z,17.71
2023-10-12T01:15:26.446Z,17.68
2023-10-12T01:20:26.410Z,17.60
2023-10-12T01:25:26.304Z,17.63
2023-10-12T01:30:26.276Z,17.59
2023-10-12T01:35:26.134Z,17.60
2023-10-12T01:40:26.225Z,17.68
2023-10-12T01:45:26.158Z,17.67
2023-10-12T01:50:25.986Z,17.67
2023-10-12T01:55:25.936Z,17.65
2023-10-12T02:00:25.847Z,17.67
2023-10-12T02:05:25.833Z,17.65
2023-10-12T02:10:25.704Z,17.57
2023-10-12T02:15:25.654Z,17.60
2023-10-12T02:20:25.573Z,17.57
2023-10-12T02:25:25.473Z,17.64
2023-10-12T02:30:25.446Z,17.63
2023-10-12T02:35:25.347Z,17.64
2023-10-12T02:40:25.281Z,17.60
2023-10-12T02:45:25.284Z,17.52
2023-10-12T02:50:25.148Z,17.49
2023-10-12T02:55:25.162Z,17.48
2023-10-12T03:00:25.058Z,17.49
2023-10-12T03:05:25.027Z,17.52
2023-10-12T03:10:24.912Z,17.44
2023-10-12T03:15:24.880Z,17.30
2023-10-12T03:20:24.755Z,17.23
2023-10-12T03:25:24.668Z,17.14
2023-10-12T03:30:24.732Z,17.06
2023-10-12T03:35:24.543Z,16.97
2023-10-12T03:40:24.505Z,16.91
2023-10-12T03:45:24.618Z,16.87
2023-10-12T03:50:24.354Z,16.78
2023-10-12T03:55:24.270Z,16.76
2023-10-12T04:00:24.246Z,16.74
2023-10-12T04:05:24.134Z,16.74
2023-10-12T04:10:24.065Z,16.76
2023-10-12T04:15:33.547Z,16.74
2023-10-12T04:20:33.506Z,16.81
2023-10-12T04:25:33.410Z,16.72
2023-10-12T04:30:33.446Z,16.68
2023-10-12T04:35:33.279Z,16.65
2023-10-12T04:40:33.204Z,16.60
2023-10-12T04:45:33.162Z,16.57
2023-10-12T04:50:33.089Z,16.32
2023-10-12T04:55:32.999Z,16.12
2023-10-12T05:00:33.002Z,16.08
2023-10-12T05:05:32.910Z,16.02
2023-10-12T05:10:32.918Z,16.05
2023-10-12T05:15:32.754Z,16.08
2023-10-12T05:20:32.679Z,16.04
2023-10-12T05:25:32.592Z,16.04
2023-10-12T05:30:32.621Z,16.02
2023-10-12T05:35:32.480Z,16.10
2023-10-12T05:40:32.423Z,16.10
2023-10-12T05:45:32.437Z,16.10
2023-10-12T05:50:32.414Z,16.08
2023-10-12T05:55:32.193Z,16.10
2023-10-12T06:00:32.174Z,16.13
2023-10-12T06:05:32.084Z,16.15
2023-10-12T06:10:32.014Z,16.16
2023-10-12T06:15:31.982Z,16.12
2023-10-12T06:20:31.876Z,16.09
2023-10-12T06:25:31.804Z,16.21
2023-10-12T06:30:31.830Z,16.20
2023-10-12T06:35:31.669Z,16.17
2023-10-12T06:40:31.619Z,16.24
2023-10-12T06:45:31.587Z,16.20
2023-10-12T06:50:31.479Z,16.15
2023-10-12T06:55:31.392Z,16.12
2023-10-12T07:00:31.408Z,16.13
2023-10-12T07:05:31.264Z,16.13
2023-10-12T07:10:31.272Z,16.13
2023-10-12T07:15:31.134Z,16.13
2023-10-12T07:20:31.074Z,16.16
2023-10-12T07:25:30.977Z,16.26
2023-10-12T07:30:30.971Z,16.23
2023-10-12T07:35:30.846Z,16.31
2023-10-12T07:40:30.788Z,16.35
2023-10-12T07:45:30.786Z,16.39
2023-10-12T07:50:30.689Z,16.41
2023-10-12T07:55:30.584Z,16.38
2023-10-12T08:00:30.544Z,16.47
2023-10-12T08:05:30.459Z,16.53
2023-10-12T08:10:30.408Z,16.58
2023-10-12T08:15:30.319Z,16.65
2023-10-12T08:20:30.270Z,16.76
2023-10-12T08:25:30.172Z,16.76
2023-10-12T08:30:30.127Z,16.76
2023-10-12T08:35:30.065Z,16.75
2023-10-12T08:40:30.032Z,16.74
2023-10-12T08:45:30.832Z,16.76
2023-10-12T08:50:29.863Z,16.74
2023-10-12T08:55:29.781Z,16.75
2023-10-12T09:00:29.723Z,16.75
2023-10-12T09:05:29.692Z,16.81
2023-10-12T09:10:29.592Z,16.96
2023-10-12T09:15:29.518Z,16.89
2023-10-12T09:20:29.498Z,16.86
2023-10-12T09:25:29.360Z,16.81
2023-10-12T09:30:29.322Z,16.78
2023-10-12T09:35:29.231Z,16.79
2023-10-12T09:40:31.476Z,16.87
2023-10-12T09:45:35.696Z,16.96
2023-10-12T09:50:30.083Z,17.06
2023-10-12T09:55:28.965Z,17.36
2023-10-12T10:00:28.974Z,17.63
2023-10-12T10:05:28.844Z,17.82
2023-10-12T10:10:28.799Z,17.95
2023-10-12T10:15:28.687Z,18.11
2023-10-12T10:20:28.642Z,18.19
2023-10-12T10:25:28.570Z,18.15
2023-10-12T10:30:28.511Z,18.20
2023-10-12T10:35:28.424Z,18.20
2023-10-12T10:40:28.414Z,18.07
2023-10-12T10:45:28.339Z,18.03
2023-10-12T10:50:28.375Z,18.01
2023-10-12T10:55:28.164Z,18.26
2023-10-12T11:00:28.934Z,18.44
2023-10-12T11:05:28.028Z,18.60
2023-10-12T11:10:27.984Z,18.49
2023-10-12T11:15:27.935Z,18.49
2023-10-12T11:20:27.822Z,18.95
2023-10-12T11:25:27.778Z,19.67
2023-10-12T11:30:27.739Z,19.99
2023-10-12T11:35:27.634Z,19.59
2023-10-12T11:40:27.673Z,19.55
2023-10-12T11:45:27.551Z,19.47
2023-10-12T11:50:27.445Z,19.33
2023-10-12T11:55:27.450Z,19.27
2023-10-12T12:00:27.331Z,19.26
2023-10-12T12:05:27.299Z,19.51
2023-10-12T12:10:27.206Z,19.34
2023-10-12T12:15:27.128Z,20.00
2023-10-12T12:20:27.181Z,20.22
2023-10-12T12:25:26.984Z,19.91
2023-10-12T12:30:50.644Z,19.85
2023-10-12T12:35:27.819Z,19.86
2023-10-12T12:40:26.746Z,20.07
2023-10-12T12:45:26.707Z,20.00
2023-10-12T12:50:26.626Z,19.47
2023-10-12T12:55:26.624Z,18.99
2023-10-12T13:00:26.466Z,19.02
2023-10-12T13:05:26.449Z,18.93
2023-10-12T13:10:26.512Z,18.60
2023-10-12T13:15:26.297Z,18.25
2023-10-12T13:20:26.249Z,18.10
2023-10-12T13:25:26.432Z,18.00
2023-10-12T13:30:26.074Z,17.82
2023-10-12T13:35:26.026Z,17.70
2023-10-12T13:40:25.994Z,17.57
2023-10-12T13:45:25.903Z,17.38
2023-10-12T13:50:25.802Z,17.27
2023-10-12T13:55:25.789Z,17.23
2023-10-12T14:00:25.746Z,17.08
2023-10-12T14:05:25.601Z,17.14
2023-10-12T14:10:25.561Z,17.09
2023-10-12T14:15:25.483Z,17.05
2023-10-12T14:20:25.427Z,17.04
2023-10-12T14:25:25.378Z,16.96
2023-10-12T14:30:25.254Z,16.91
2023-10-12T14:35:25.205Z,16.97
2023-10-12T14:40:25.307Z,16.97
2023-10-12T14:45:25.062Z,16.97
2023-10-12T14:50:25.001Z,17.11
2023-10-12T14:55:24.946Z,17.22
2023-10-12T15:00:24.870Z,17.19
2023-10-12T15:05:24.831Z,17.22
2023-10-12T15:10:24.743Z,17.05
2023-10-12T15:15:25.615Z,16.93
2023-10-12T15:20:24.643Z,16.96
2023-10-12T15:25:24.560Z,16.99
2023-10-12T15:30:24.477Z,17.01
2023-10-12T15:35:24.396Z,16.97
2023-10-12T15:40:24.366Z,16.93
2023-10-12T15:45:24.251Z,17.01
2023-10-12T15:50:24.171Z,16.91
2023-10-12T15:55:24.173Z,16.84
2023-10-12T16:00:24.045Z,16.76
2023-10-12T16:05:24.015Z,16.61
2023-10-12T16:10:24.108Z,16.54
2023-10-12T16:15:24.788Z,16.54
2023-10-12T16:20:23.784Z,16.56
2023-10-12T16:25:23.788Z,16.49
2023-10-12T16:30:23.637Z,16.47
2023-10-12T16:35:23.614Z,16.41
2023-10-12T16:40:23.582Z,16.43
2023-10-12T16:45:23.438Z,16.43
2023-10-12T16:50:24.059Z,16.43
2023-10-12T16:55:23.417Z,16.39
2023-10-12T17:00:23.228Z,16.39
2023-10-12T17:05:23.167Z,16.36
2023-10-12T17:10:23.152Z,16.39
2023-10-12T17:15:23.025Z,16.38
2023-10-12T17:20:22.974Z,16.39
2023-10-12T17:25:22.972Z,16.36
2023-10-12T17:30:22.853Z,16.36
2023-10-12T17:35:22.751Z,16.38
2023-10-12T17:40:22.892Z,16.41
2023-10-12T17:45:22.658Z,16.41
2023-10-12T17:50:22.579Z,16.43
2023-10-12T17:55:22.557Z,16.46
2023-10-12T18:00:22.437Z,16.46
2023-10-12T18:05:22.351Z,16.49
2023-10-12T18:10:22.370Z,16.51
2023-10-12T18:15:22.244Z,16.53
2023-10-12T18:20:22.174Z,16.51
2023-10-12T18:25:22.224Z,16.51
2023-10-12T18:30:22.038Z,16.53
2023-10-12T18:35:21.991Z,16.56
2023-10-12T18:40:21.963Z,16.56
2023-10-12T18:45:21.838Z,16.56
2023-10-12T18:50:21.766Z,16.57
2023-10-12T18:55:21.715Z,16.56
2023-10-12T19:00:21.672Z,16.58
2023-10-12T19:05:21.557Z,16.58
2023-10-12T19:10:21.609Z,16.61
2023-10-12T19:15:21.407Z,16.57
2023-10-12T19:20:21.479Z,16.57
2023-10-12T19:25:21.367Z,16.56
2023-10-12T19:30:21.260Z,16.64
2023-10-12T19:35:21.176Z,16.64
2023-10-12T19:40:21.183Z,16.65
2023-10-12T19:45:21.027Z,16.66
2023-10-12T19:50:21.008Z,16.69
2023-10-12T19:55:20.933Z,16.66
2023-10-12T20:00:20.880Z,16.64
2023-10-12T20:05:20.751Z,16.66
2023-10-12T20:10:20.735Z,16.69
2023-10-12T20:15:20.614Z,16.66
2023-10-12T20:20:20.568Z,16.68
2023-10-12T20:25:20.510Z,16.65
2023-10-12T20:30:20.419Z,16.68
2023-10-12T20:35:20.367Z,16.68
2023-10-12T20:40:20.276Z,16.69
2023-10-12T20:45:20.205Z,16.71
2023-10-12T20:50:20.171Z,16.72
2023-10-12T20:55:20.113Z,16.74
2023-10-12T21:00:20.033Z,16.71
2023-10-12T21:05:20.014Z,16.72
2023-10-12T21:10:19.968Z,16.71
2023-10-12T21:15:19.803Z,16.66
2023-10-12T21:20:19.760Z,16.64
2023-10-12T21:25:19.690Z,16.60
2023-10-12T21:30:19.613Z,16.56
2023-10-12T21:35:19.566Z,16.54
2023-10-12T21:40:19.604Z,16.54
2023-10-12T21:45:19.394Z,16.53
2023-10-12T21:50:19.345Z,16.50
2023-10-12T21:55:19.317Z,16.47
2023-10-12T22:00:19.217Z,16.43
2023-10-12T22:05:19.184Z,16.43
2023-10-12T22:10:19.094Z,16.43
2023-10-12T22:15:18.995Z,16.41
2023-10-12T22:20:18.951Z,16.41
2023-10-12T22:25:18.925Z,16.43
2023-10-12T22:30:19.021Z,16.42
2023-10-12T22:35:18.759Z,16.39
2023-10-12T22:40:18.975Z,16.39
2023-10-12T22:45:18.610Z,16.42
2023-10-12T22:50:18.564Z,16.42
2023-10-12T22:55:18.449Z,16.43
2023-10-12T23:00:18.441Z,16.42
2023-10-12T23:05:18.322Z,16.42
2023-10-12T23:10:18.333Z,16.41
2023-10-12T23:15:18.191Z,16.41
2023-10-12T23:20:18.212Z,16.42
2023-10-12T23:25:18.089Z,16.43
2023-10-12T23:30:18.007Z,16.43
2023-10-12T23:35:17.937Z,16.42
2023-10-12T23:40:17.911Z,16.42
2023-10-12T23:45:17.842Z,16.42
2023-10-12T23:50:17.886Z,16.46
2023-10-12T23:55:17.692Z,16.43
